Time;durP1;ratioP1;P1;durP2;ratioP2;P2;SDS_P1;SDS_P2;PMS_P1;PMS_P2;Temp;Humidity;BMP_temperature;BMP_pressure;BME280_temperature;BME280_humidity;BME280_pressure;Samples;Min_cycle;Max_cycle;Signal;HPM_P1;HPM_P2
2023/09/11 00:00:48;;;;;;;;;;;23.10;92.10;;;;;;5073522;28;19909;-61
2023/09/11 00:03:14;;;;;;;;;;;23.20;92.10;;;;;;5073690;28;20370;-62
2023/09/11 00:05:39;;;;;;;;;;;23.10;92.10;;;;;;5073788;28;20414;-62
2023/09/11 00:08:05;;;;;;;;;;;23.10;92.10;;;;;;5073683;28;19916;-62
2023/09/11 00:10:32;;;;;;;;;;;23.10;92.10;;;;;;5073716;28;20369;-62
2023/09/11 00:12:58;;;;;;;;;;;23.20;92.10;;;;;;5073672;28;19962;-61
2023/09/11 00:15:24;;;;;;;;;;;23.10;92.10;;;;;;5073462;28;19916;-62
2023/09/11 00:17:50;;;;;;;;;;;23.20;92.10;;;;;;5073709;28;19912;-62
2023/09/11 00:20:15;;;;;;;;;;;23.20;92.10;;;;;;5073625;28;20339;-62
2023/09/11 00:22:41;;;;;;;;;;;23.20;92.10;;;;;;5073521;28;19928;-62
2023/09/11 00:25:07;;;;;;;;;;;23.20;92.10;;;;;;5073588;28;19919;-62
2023/09/11 00:27:32;;;;;;;;;;;23.20;92.10;;;;;;5073572;28;19961;-62
2023/09/11 00:29:58;;;;;;;;;;;23.20;92.10;;;;;;5073358;28;20003;-61
2023/09/11 00:32:23;;;;;;;;;;;23.20;92.10;;;;;;5073286;28;19908;-62
2023/09/11 00:34:49;;;;;;;;;;;23.20;92.10;;;;;;5073207;28;20275;-62
2023/09/11 00:37:14;;;;;;;;;;;23.20;92.10;;;;;;5073156;28;19908;-62
2023/09/11 00:39:40;;;;;;;;;;;23.20;92.20;;;;;;5073464;28;19953;-62
2023/09/11 00:42:05;;;;;;;;;;;23.20;92.10;;;;;;5073063;28;19913;-61
2023/09/11 00:44:31;;;;;;;;;;;23.20;92.10;;;;;;5073811;28;19919;-62
2023/09/11 00:46:56;;;;;;;;;;;23.20;92.10;;;;;;5073023;28;19920;-62
2023/09/11 00:49:23;;;;;;;;;;;23.20;92.20;;;;;;5073153;28;20430;-62
2023/09/11 00:51:50;;;;;;;;;;;23.20;92.20;;;;;;5073823;28;19952;-62
2023/09/11 00:54:17;;;;;;;;;;;23.20;92.20;;;;;;5076647;28;19912;-61
2023/09/11 00:56:42;;;;;;;;;;;23.20;92.20;;;;;;5076876;28;19919;-61
2023/09/11 00:59:08;;;;;;;;;;;23.20;92.20;;;;;;5076784;28;19908;-62
2023/09/11 01:01:35;;;;;;;;;;;23.20;92.20;;;;;;5076756;28;19959;-62
2023/09/11 01:04:01;;;;;;;;;;;23.20;92.20;;;;;;5076838;28;19991;-61
2023/09/11 01:06:26;;;;;;;;;;;23.20;92.20;;;;;;5076791;28;19936;-61
2023/09/11 01:08:54;;;;;;;;;;;23.20;92.20;;;;;;5075188;28;20256;-62
2023/09/11 01:11:20;;;;;;;;;;;23.20;92.20;;;;;;5076628;28;19908;-61
2023/09/11 01:13:46;;;;;;;;;;;23.20;92.20;;;;;;5076570;28;19915;-61
2023/09/11 01:16:20;;;;;;;;;;;23.20;92.20;;;;;;5076167;28;19909;-61
2023/09/11 01:18:48;;;;;;;;;;;23.20;92.20;;;;;;5076378;28;20413;-61
2023/09/11 01:21:14;;;;;;;;;;;23.20;92.20;;;;;;5076402;28;19908;-61
2023/09/11 01:23:45;;;;;;;;;;;23.20;92.20;;;;;;5076138;28;20360;-61
2023/09/11 01:26:20;;;;;;;;;;;23.20;92.20;;;;;;5076653;28;19909;-62
2023/09/11 01:29:02;;;;;;;;;;;23.20;92.20;;;;;;5076108;28;20384;-62
2023/09/11 01:31:31;;;;;;;;;;;23.20;92.20;;;;;;5076356;28;20000;-59
2023/09/11 01:34:00;;;;;;;;;;;23.20;92.30;;;;;;5074669;28;19908;-60
2023/09/11 01:36:25;;;;;;;;;;;23.20;92.30;;;;;;5075145;28;19912;-61
2023/09/11 01:38:50;;;;;;;;;;;23.20;92.30;;;;;;5076134;28;19915;-61
2023/09/11 01:41:16;;;;;;;;;;;23.20;92.30;;;;;;5079884;28;19908;-61
2023/09/11 01:43:44;;;;;;;;;;;23.20;92.40;;;;;;5075776;28;20003;-61
2023/09/11 01:46:09;;;;;;;;;;;23.20;92.40;;;;;;5074733;28;19908;-61
2023/09/11 01:48:36;;;;;;;;;;;23.20;92.40;;;;;;5057318;28;19927;-61
2023/09/11 01:51:02;;;;;;;;;;;23.20;92.40;;;;;;5055649;28;19967;-61
2023/09/11 01:53:28;;;;;;;;;;;23.20;92.50;;;;;;5055327;28;19987;-61
2023/09/11 01:55:55;;;;;;;;;;;23.20;92.50;;;;;;5055790;28;20046;-61
2023/09/11 01:58:21;;;;;;;;;;;23.20;92.70;;;;;;5070804;28;19908;-61
2023/09/11 02:00:46;;;;;;;;;;;23.20;92.50;;;;;;5075680;28;19915;-61
2023/09/11 02:03:12;;;;;;;;;;;23.20;92.50;;;;;;5074826;28;19999;-61
2023/09/11 02:05:38;;;;;;;;;;;23.20;92.50;;;;;;5075186;28;19920;-61
2023/09/11 02:08:03;;;;;;;;;;;23.20;92.50;;;;;;5075476;28;19909;-61
2023/09/11 02:10:29;;;;;;;;;;;23.20;92.50;;;;;;5057636;28;19914;-60
2023/09/11 02:12:54;;;;;;;;;;;23.20;92.50;;;;;;5075111;28;19915;-61
2023/09/11 02:15:20;;;;;;;;;;;23.20;92.60;;;;;;5074867;28;20318;-61
2023/09/11 02:17:45;;;;;;;;;;;23.20;92.50;;;;;;5074946;28;19995;-61
2023/09/11 02:20:11;;;;;;;;;;;23.20;92.50;;;;;;5074992;28;19912;-61
2023/09/11 02:22:36;;;;;;;;;;;23.20;92.60;;;;;;5074892;28;20343;-61
2023/09/11 02:25:02;;;;;;;;;;;23.20;92.50;;;;;;5072685;28;19920;-61
2023/09/11 02:27:27;;;;;;;;;;;23.20;92.50;;;;;;5057210;28;19912;-61
2023/09/11 02:29:53;;;;;;;;;;;23.20;92.50;;;;;;5054789;28;19955;-61
2023/09/11 02:32:18;;;;;;;;;;;23.20;92.50;;;;;;5069905;28;19916;-61
2023/09/11 02:34:44;;;;;;;;;;;23.20;92.50;;;;;;5074985;28;19909;-61
2023/09/11 02:37:09;;;;;;;;;;;23.20;92.60;;;;;;5073074;28;19908;-61
2023/09/11 02:39:35;;;;;;;;;;;23.20;92.60;;;;;;5054900;28;19908;-61
2023/09/11 02:42:01;;;;;;;;;;;23.20;92.50;;;;;;5054506;28;19952;-60
2023/09/11 02:44:26;;;;;;;;;;;23.20;92.50;;;;;;5054554;28;20017;-61
2023/09/11 02:46:52;;;;;;;;;;;23.20;92.50;;;;;;5054222;28;20000;-61
2023/09/11 02:49:18;;;;;;;;;;;23.20;92.50;;;;;;5055310;28;19916;-61
2023/09/11 02:51:43;;;;;;;;;;;23.20;92.50;;;;;;5054421;28;19976;-61
2023/09/11 02:54:09;;;;;;;;;;;23.20;92.50;;;;;;5054337;28;20323;-62
2023/09/11 02:56:37;;;;;;;;;;;23.20;92.50;;;;;;5054292;28;19915;-62
2023/09/11 02:59:04;;;;;;;;;;;23.20;92.50;;;;;;5054280;28;19958;-62
2023/09/11 03:01:29;;;;;;;;;;;23.20;92.60;;;;;;5054475;28;19913;-61
2023/09/11 03:03:55;;;;;;;;;;;23.20;92.50;;;;;;5054427;28;19913;-61
2023/09/11 03:06:20;;;;;;;;;;;23.20;92.50;;;;;;5054686;28;19954;-61
2023/09/11 03:08:46;;;;;;;;;;;23.20;92.50;;;;;;5054357;28;20268;-61
2023/09/11 03:11:11;;;;;;;;;;;23.20;92.50;;;;;;5054062;28;19909;-61
2023/09/11 03:13:37;;;;;;;;;;;23.20;92.40;;;;;;5053960;28;19999;-61
2023/09/11 03:16:12;;;;;;;;;;;23.20;92.40;;;;;;5053634;28;19919;-60
2023/09/11 03:18:38;;;;;;;;;;;23.20;92.40;;;;;;5054232;28;19909;-61
2023/09/11 03:21:04;;;;;;;;;;;23.20;92.40;;;;;;5054096;28;19931;-61
2023/09/11 03:23:30;;;;;;;;;;;23.20;92.40;;;;;;5055041;28;19913;-61
2023/09/11 03:25:55;;;;;;;;;;;23.20;92.40;;;;;;5054218;28;19955;-61
2023/09/11 03:28:21;;;;;;;;;;;23.20;92.50;;;;;;5053412;28;20240;-60
2023/09/11 03:30:46;;;;;;;;;;;23.20;92.40;;;;;;5052383;28;19909;-60
2023/09/11 03:33:12;;;;;;;;;;;23.20;92.40;;;;;;5052301;28;19951;-59
2023/09/11 03:35:37;;;;;;;;;;;23.20;92.50;;;;;;5052560;28;19936;-59
2023/09/11 03:38:03;;;;;;;;;;;23.20;92.50;;;;;;5052587;28;19909;-60
2023/09/11 03:40:29;;;;;;;;;;;23.20;92.50;;;;;;5034739;28;19915;-61
2023/09/11 03:42:54;;;;;;;;;;;23.20;92.50;;;;;;5052847;28;20343;-61
2023/09/11 03:45:20;;;;;;;;;;;23.20;92.50;;;;;;5036133;28;19913;-61
2023/09/11 03:47:46;;;;;;;;;;;23.20;92.50;;;;;;5054071;28;19928;-62
2023/09/11 03:50:11;;;;;;;;;;;23.20;92.50;;;;;;5053951;28;19908;-61
2023/09/11 03:52:37;;;;;;;;;;;23.20;92.40;;;;;;5053635;28;19909;-61
2023/09/11 03:55:03;;;;;;;;;;;23.20;92.40;;;;;;5053529;28;19913;-60
2023/09/11 03:57:29;;;;;;;;;;;23.20;92.50;;;;;;5053527;28;20008;-61
2023/09/11 03:59:54;;;;;;;;;;;23.20;92.50;;;;;;5053833;28;20327;-61
2023/09/11 04:02:19;;;;;;;;;;;23.20;92.40;;;;;;5053896;28;20008;-61
2023/09/11 04:04:45;;;;;;;;;;;23.20;92.40;;;;;;5053452;28;20433;-62
2023/09/11 04:07:10;;;;;;;;;;;23.20;92.40;;;;;;5053625;28;19915;-61
2023/09/11 04:09:36;;;;;;;;;;;23.20;92.40;;;;;;5053726;28;19963;-61
2023/09/11 04:12:02;;;;;;;;;;;23.20;92.40;;;;;;5053798;28;19908;-61
2023/09/11 04:14:28;;;;;;;;;;;23.20;92.40;;;;;;5035903;28;19970;-61
2023/09/11 04:16:53;;;;;;;;;;;23.20;92.50;;;;;;5053629;28;19909;-61
2023/09/11 04:19:18;;;;;;;;;;;23.20;92.40;;;;;;5053351;28;19908;-62
2023/09/11 04:21:44;;;;;;;;;;;23.20;92.40;;;;;;5053558;28;19966;-61
2023/09/11 04:24:12;;;;;;;;;;;23.20;92.40;;;;;;5053476;28;19914;-61
2023/09/11 04:26:42;;;;;;;;;;;23.20;92.40;;;;;;5053805;28;19917;-62
2023/09/11 04:29:11;;;;;;;;;;;23.20;92.40;;;;;;5057424;28;19916;-61
2023/09/11 04:31:36;;;;;;;;;;;23.20;92.40;;;;;;5057317;28;19909;-61
2023/09/11 04:34:02;;;;;;;;;;;23.20;92.40;;;;;;5057200;28;20085;-59
2023/09/11 04:36:27;;;;;;;;;;;23.20;92.40;;;;;;5057486;28;19909;-61
2023/09/11 04:38:53;;;;;;;;;;;23.20;92.40;;;;;;5057095;28;19908;-61
2023/09/11 04:41:19;;;;;;;;;;;23.20;92.40;;;;;;5056802;28;20286;-61
2023/09/11 04:43:44;;;;;;;;;;;23.20;92.40;;;;;;5057033;28;20011;-61
2023/09/11 04:46:10;;;;;;;;;;;23.20;92.50;;;;;;5056998;28;19931;-61
2023/09/11 04:48:36;;;;;;;;;;;23.20;92.40;;;;;;5057057;28;20103;-61
2023/09/11 04:51:01;;;;;;;;;;;23.20;92.40;;;;;;5056881;28;19944;-61
2023/09/11 04:53:27;;;;;;;;;;;23.20;92.40;;;;;;5056800;28;19909;-61
2023/09/11 04:55:52;;;;;;;;;;;23.20;92.40;;;;;;5056806;28;19912;-61
2023/09/11 04:58:19;;;;;;;;;;;23.20;92.40;;;;;;5055635;28;20389;-62
2023/09/11 05:00:45;;;;;;;;;;;23.20;92.40;;;;;;5056740;28;19960;-62
2023/09/11 05:03:10;;;;;;;;;;;23.20;92.40;;;;;;5056340;28;20348;-62
2023/09/11 05:05:40;;;;;;;;;;;23.20;92.40;;;;;;5056349;28;19967;-61
2023/09/11 05:08:06;;;;;;;;;;;23.20;92.40;;;;;;5056568;28;20327;-61
2023/09/11 05:10:32;;;;;;;;;;;23.20;92.40;;;;;;5056891;28;19916;-61
2023/09/11 05:12:57;;;;;;;;;;;23.20;92.40;;;;;;5056083;28;19908;-62
2023/09/11 05:15:23;;;;;;;;;;;23.20;92.40;;;;;;5056459;28;20306;-61
2023/09/11 05:17:49;;;;;;;;;;;23.20;92.40;;;;;;5056079;28;19936;-61
2023/09/11 05:20:15;;;;;;;;;;;23.20;92.40;;;;;;5038375;28;19958;-61
2023/09/11 05:22:41;;;;;;;;;;;23.20;92.40;;;;;;5056308;28;19963;-61
2023/09/11 05:25:07;;;;;;;;;;;23.20;92.40;;;;;;5038481;28;20064;-62
2023/09/11 05:27:32;;;;;;;;;;;23.20;92.40;;;;;;5038138;28;20069;-62
2023/09/11 05:29:58;;;;;;;;;;;23.20;92.40;;;;;;5056242;28;19908;-61
2023/09/11 05:32:25;;;;;;;;;;;23.20;92.40;;;;;;5056164;28;20015;-62
2023/09/11 05:34:51;;;;;;;;;;;23.20;92.40;;;;;;5055881;28;20352;-62
2023/09/11 05:37:17;;;;;;;;;;;23.20;92.40;;;;;;5056076;28;19916;-62
2023/09/11 05:39:43;;;;;;;;;;;23.20;92.40;;;;;;5055498;28;20310;-61
2023/09/11 05:42:10;;;;;;;;;;;23.30;92.40;;;;;;5055774;28;19944;-61
2023/09/11 05:44:36;;;;;;;;;;;23.20;92.40;;;;;;5055582;28;19916;-60
2023/09/11 05:47:01;;;;;;;;;;;23.20;92.40;;;;;;5055320;28;19995;-61
2023/09/11 05:49:28;;;;;;;;;;;23.20;92.40;;;;;;5055676;28;20016;-62
2023/09/11 05:51:54;;;;;;;;;;;23.20;92.50;;;;;;5055392;28;20328;-62
2023/09/11 05:54:19;;;;;;;;;;;23.20;92.50;;;;;;5055641;28;20015;-61
2023/09/11 05:56:45;;;;;;;;;;;23.20;92.40;;;;;;5037451;28;19909;-61
2023/09/11 05:59:10;;;;;;;;;;;23.20;92.50;;;;;;5055283;28;19915;-61
2023/09/11 06:01:36;;;;;;;;;;;23.30;92.50;;;;;;5055433;28;19944;-61
2023/09/11 06:04:02;;;;;;;;;;;23.20;92.50;;;;;;5055227;28;19919;-61
2023/09/11 06:06:27;;;;;;;;;;;23.20;92.50;;;;;;5055166;28;19918;-60
2023/09/11 06:08:54;;;;;;;;;;;23.20;92.50;;;;;;5055387;28;19912;-61
2023/09/11 06:11:20;;;;;;;;;;;23.20;92.50;;;;;;5055119;28;20010;-61
2023/09/11 06:13:48;;;;;;;;;;;23.20;92.50;;;;;;5055246;28;20371;-61
2023/09/11 06:16:13;;;;;;;;;;;23.20;92.50;;;;;;5055546;28;19913;-61
2023/09/11 06:18:39;;;;;;;;;;;23.20;92.60;;;;;;5054879;28;19974;-61
2023/09/11 06:21:04;;;;;;;;;;;23.20;92.60;;;;;;5054936;28;19932;-60
2023/09/11 06:23:30;;;;;;;;;;;23.20;92.60;;;;;;5054682;28;19964;-61
2023/09/11 06:25:55;;;;;;;;;;;23.20;92.80;;;;;;5054635;28;20291;-62
2023/09/11 06:28:20;;;;;;;;;;;23.20;92.60;;;;;;5054862;28;19909;-62
2023/09/11 06:30:46;;;;;;;;;;;23.20;92.60;;;;;;5054746;28;19975;-61
2023/09/11 06:33:11;;;;;;;;;;;23.20;92.60;;;;;;5054540;28;19908;-61
2023/09/11 06:35:37;;;;;;;;;;;23.20;92.60;;;;;;5054871;28;19966;-61
2023/09/11 06:38:03;;;;;;;;;;;23.20;92.60;;;;;;5054727;28;20359;-62
2023/09/11 06:40:28;;;;;;;;;;;23.20;92.60;;;;;;5054873;28;19948;-61
2023/09/11 06:42:54;;;;;;;;;;;23.20;92.60;;;;;;5054643;28;20364;-61
2023/09/11 06:45:19;;;;;;;;;;;23.20;92.60;;;;;;5054565;28;19912;-61
2023/09/11 06:47:45;;;;;;;;;;;23.20;92.60;;;;;;5054516;28;19921;-61
2023/09/11 06:50:11;;;;;;;;;;;23.20;92.60;;;;;;5053910;28;19974;-61
2023/09/11 06:52:39;;;;;;;;;;;23.20;92.60;;;;;;5054632;28;20252;-60
2023/09/11 06:55:07;;;;;;;;;;;23.20;92.50;;;;;;5054598;28;20003;-61
2023/09/11 06:57:33;;;;;;;;;;;23.20;92.50;;;;;;5054193;28;19935;-61
2023/09/11 06:59:59;;;;;;;;;;;23.20;92.50;;;;;;5054203;28;19995;-62
2023/09/11 07:02:24;;;;;;;;;;;23.20;92.50;;;;;;5053989;28;19912;-62
2023/09/11 07:04:49;;;;;;;;;;;23.20;92.50;;;;;;5053824;28;19917;-61
2023/09/11 07:07:15;;;;;;;;;;;23.20;92.50;;;;;;5054056;28;19923;-61
2023/09/11 07:09:40;;;;;;;;;;;23.20;92.50;;;;;;5053898;28;19971;-60
2023/09/11 07:12:06;;;;;;;;;;;23.20;92.50;;;;;;5053766;28;19915;-61
2023/09/11 07:14:31;;;;;;;;;;;23.20;92.50;;;;;;5054429;28;19959;-61
2023/09/11 07:17:00;;;;;;;;;;;23.20;92.50;;;;;;5053862;28;20314;-61
2023/09/11 07:19:26;;;;;;;;;;;23.20;92.50;;;;;;5049778;28;20004;-61
2023/09/11 07:21:51;;;;;;;;;;;23.20;92.50;;;;;;5034297;28;19999;-61
2023/09/11 07:24:17;;;;;;;;;;;23.20;92.50;;;;;;5054066;28;19958;-61
2023/09/11 07:26:43;;;;;;;;;;;23.20;92.50;;;;;;5055237;28;19940;-61
2023/09/11 07:29:08;;;;;;;;;;;23.20;92.50;;;;;;5063708;28;19975;-60
2023/09/11 07:31:35;;;;;;;;;;;23.20;92.50;;;;;;5054198;28;19908;-61
2023/09/11 07:34:00;;;;;;;;;;;23.20;92.50;;;;;;5053542;28;20491;-61
2023/09/11 07:36:27;;;;;;;;;;;23.20;92.50;;;;;;5053931;28;19956;-55
2023/09/11 07:38:52;;;;;;;;;;;23.20;92.50;;;;;;5054053;28;19909;-60
2023/09/11 07:41:18;;;;;;;;;;;23.20;92.60;;;;;;5051220;28;20256;-61
2023/09/11 07:43:48;;;;;;;;;;;23.20;92.60;;;;;;5042942;28;19939;-58
2023/09/11 07:46:14;;;;;;;;;;;23.20;92.60;;;;;;5054032;28;19982;-56
2023/09/11 07:48:39;;;;;;;;;;;23.20;92.80;;;;;;5051752;28;20368;-58
2023/09/11 07:51:05;;;;;;;;;;;23.20;92.70;;;;;;5039069;28;19912;-57
2023/09/11 07:53:30;;;;;;;;;;;23.20;92.70;;;;;;5071969;28;20353;-57
2023/09/11 07:55:56;;;;;;;;;;;23.20;92.70;;;;;;5053122;28;19909;-57
2023/09/11 07:58:21;;;;;;;;;;;23.20;92.60;;;;;;5053251;28;20008;-57
2023/09/11 08:00:47;;;;;;;;;;;23.20;92.60;;;;;;5066158;28;19912;-58
2023/09/11 08:03:12;;;;;;;;;;;23.20;92.70;;;;;;5058612;28;19965;-58
2023/09/11 08:05:38;;;;;;;;;;;23.20;92.60;;;;;;5061436;28;19916;-57
2023/09/11 08:08:03;;;;;;;;;;;23.20;92.60;;;;;;5065532;28;19963;-56
2023/09/11 08:10:29;;;;;;;;;;;23.20;92.60;;;;;;5057867;28;19908;-57
2023/09/11 08:12:55;;;;;;;;;;;23.20;92.60;;;;;;5058564;28;19908;-57
2023/09/11 08:15:20;;;;;;;;;;;23.20;92.70;;;;;;5057203;28;19944;-58
2023/09/11 08:17:46;;;;;;;;;;;23.20;92.70;;;;;;5062405;28;19913;-58
2023/09/11 08:20:12;;;;;;;;;;;23.20;92.60;;;;;;5070630;28;19913;-58
2023/09/11 08:22:39;;;;;;;;;;;23.20;92.70;;;;;;5055735;28;19924;-58
2023/09/11 08:25:05;;;;;;;;;;;23.20;92.70;;;;;;5053974;28;19948;-58
2023/09/11 08:27:31;;;;;;;;;;;23.20;92.80;;;;;;5040345;28;19968;-57
2023/09/11 08:29:57;;;;;;;;;;;23.20;92.80;;;;;;5062611;28;20244;-60
2023/09/11 08:32:23;;;;;;;;;;;23.20;92.90;;;;;;5067636;28;20007;-59
2023/09/11 08:34:48;;;;;;;;;;;23.20;92.90;;;;;;5069356;28;19952;-59
2023/09/11 08:37:14;;;;;;;;;;;23.20;92.90;;;;;;5056489;28;19908;-58
2023/09/11 08:39:39;;;;;;;;;;;23.20;92.90;;;;;;5056975;28;19909;-59
2023/09/11 08:42:07;;;;;;;;;;;23.20;92.80;;;;;;5056656;28;19912;-59
2023/09/11 08:44:33;;;;;;;;;;;23.20;92.80;;;;;;5057019;28;19917;-60
2023/09/11 08:46:59;;;;;;;;;;;23.20;92.80;;;;;;5056489;28;19920;-59
2023/09/11 08:49:25;;;;;;;;;;;23.20;92.80;;;;;;5056826;28;19924;-59
2023/09/11 08:51:52;;;;;;;;;;;23.20;92.80;;;;;;5056725;28;19909;-59
2023/09/11 08:54:18;;;;;;;;;;;23.20;92.80;;;;;;5056539;28;20275;-59
2023/09/11 08:56:44;;;;;;;;;;;23.20;92.80;;;;;;5056483;28;19923;-59
2023/09/11 08:59:11;;;;;;;;;;;23.20;92.70;;;;;;5056346;28;19908;-58
2023/09/11 09:01:37;;;;;;;;;;;23.20;92.70;;;;;;5056777;28;19959;-59
2023/09/11 09:04:04;;;;;;;;;;;23.20;92.70;;;;;;5056459;28;19959;-59
2023/09/11 09:06:29;;;;;;;;;;;23.20;92.70;;;;;;5056557;28;20352;-59
2023/09/11 09:08:55;;;;;;;;;;;23.20;92.70;;;;;;5056514;28;19923;-59
2023/09/11 09:11:21;;;;;;;;;;;23.20;92.70;;;;;;5056586;28;19955;-59
2023/09/11 09:13:47;;;;;;;;;;;23.20;92.70;;;;;;5055946;28;19909;-60
2023/09/11 09:16:12;;;;;;;;;;;23.20;92.70;;;;;;5056380;28;19935;-59
2023/09/11 09:18:41;;;;;;;;;;;23.20;92.70;;;;;;5056409;28;20390;-59
2023/09/11 09:21:07;;;;;;;;;;;23.20;92.70;;;;;;5056379;28;19909;-59
2023/09/11 09:23:33;;;;;;;;;;;23.20;92.70;;;;;;5056364;28;20066;-59
2023/09/11 09:26:02;;;;;;;;;;;23.20;92.70;;;;;;5056154;28;20425;-59
2023/09/11 09:28:32;;;;;;;;;;;23.20;92.60;;;;;;5055871;28;19913;-58
2023/09/11 09:30:57;;;;;;;;;;;23.20;92.70;;;;;;5056044;28;20429;-57
2023/09/11 09:33:24;;;;;;;;;;;23.20;92.60;;;;;;5055894;28;19971;-58
2023/09/11 09:35:49;;;;;;;;;;;23.20;92.90;;;;;;5056027;28;20288;-58
2023/09/11 09:38:18;;;;;;;;;;;23.20;92.60;;;;;;5055777;28;19909;-59
2023/09/11 09:40:44;;;;;;;;;;;23.20;92.60;;;;;;5055893;28;19962;-59
2023/09/11 09:43:14;;;;;;;;;;;23.20;92.60;;;;;;5055334;28;19912;-58
2023/09/11 09:45:40;;;;;;;;;;;23.20;92.60;;;;;;5055427;28;20360;-58
2023/09/11 09:48:07;;;;;;;;;;;23.20;92.60;;;;;;5055647;28;20299;-59
2023/09/11 09:50:52;;;;;;;;;;;23.20;92.60;;;;;;5055450;28;20217;-59
2023/09/11 09:53:21;;;;;;;;;;;23.20;92.60;;;;;;5054929;28;20329;-60
2023/09/11 09:55:47;;;;;;;;;;;23.20;92.60;;;;;;5055404;28;19908;-59
2023/09/11 09:58:12;;;;;;;;;;;23.20;92.60;;;;;;5055378;28;19912;-59
2023/09/11 10:00:38;;;;;;;;;;;23.20;92.60;;;;;;5038000;28;19909;-59
2023/09/11 10:03:03;;;;;;;;;;;23.20;92.60;;;;;;5055558;28;20271;-60
2023/09/11 10:05:29;;;;;;;;;;;23.20;92.60;;;;;;5055186;28;19913;-59
2023/09/11 10:07:58;;;;;;;;;;;23.20;92.60;;;;;;5037437;28;19909;-58
2023/09/11 10:10:25;;;;;;;;;;;23.20;92.60;;;;;;5055037;28;19979;-60
2023/09/11 10:12:52;;;;;;;;;;;23.20;92.60;;;;;;5055383;28;19913;-59
2023/09/11 10:15:17;;;;;;;;;;;23.20;92.50;;;;;;5055130;28;19999;-59
2023/09/11 10:17:43;;;;;;;;;;;23.20;92.60;;;;;;5037035;28;20344;-59
2023/09/11 10:20:09;;;;;;;;;;;23.20;92.50;;;;;;5037396;28;19916;-60
2023/09/11 10:22:34;;;;;;;;;;;23.20;92.50;;;;;;5055002;28;19966;-58
2023/09/11 10:25:00;;;;;;;;;;;23.20;92.50;;;;;;5054370;28;20266;-60
2023/09/11 10:27:25;;;;;;;;;;;23.20;92.50;;;;;;5055481;28;19916;-60
2023/09/11 10:29:54;;;;;;;;;;;23.20;92.50;;;;;;5054752;28;19992;-59
2023/09/11 10:32:26;;;;;;;;;;;23.20;92.50;;;;;;5054874;28;19909;-59
2023/09/11 10:34:52;;;;;;;;;;;23.20;92.50;;;;;;5054362;28;20012;-59
2023/09/11 10:37:20;;;;;;;;;;;23.20;92.50;;;;;;5054281;28;19952;-58
2023/09/11 10:39:46;;;;;;;;;;;23.20;92.50;;;;;;5054564;28;19991;-59
2023/09/11 10:42:12;;;;;;;;;;;23.20;92.50;;;;;;5054486;28;19964;-59
2023/09/11 10:44:37;;;;;;;;;;;23.20;92.50;;;;;;5054449;28;20392;-59
2023/09/11 10:47:04;;;;;;;;;;;23.20;92.50;;;;;;5054468;28;19968;-59
2023/09/11 10:49:34;;;;;;;;;;;23.20;92.50;;;;;;5054562;28;19913;-59
2023/09/11 10:51:59;;;;;;;;;;;23.20;92.50;;;;;;5054177;28;20283;-59
2023/09/11 10:54:25;;;;;;;;;;;23.20;92.50;;;;;;5036637;28;20003;-59
2023/09/11 10:56:51;;;;;;;;;;;23.20;92.50;;;;;;5054066;28;19995;-58
2023/09/11 10:59:17;;;;;;;;;;;23.20;92.50;;;;;;5054117;28;19908;-59
2023/09/11 11:01:46;;;;;;;;;;;23.20;92.50;;;;;;5054045;28;19923;-58
2023/09/11 11:04:13;;;;;;;;;;;23.20;92.50;;;;;;5054204;28;19952;-59
2023/09/11 11:06:42;;;;;;;;;;;23.20;92.50;;;;;;5054060;28;19909;-60
2023/09/11 11:09:22;;;;;;;;;;;23.20;92.50;;;;;;5036180;28;19915;-59
2023/09/11 11:11:47;;;;;;;;;;;23.20;92.50;;;;;;5054239;28;19908;-60
2023/09/11 11:14:13;;;;;;;;;;;23.20;92.50;;;;;;5054013;28;19913;-59
2023/09/11 11:16:39;;;;;;;;;;;23.20;92.50;;;;;;5054194;28;19956;-59
2023/09/11 11:19:05;;;;;;;;;;;23.20;92.50;;;;;;5054031;28;19952;-59
2023/09/11 11:21:37;;;;;;;;;;;23.20;92.50;;;;;;5035831;28;19949;-59
2023/09/11 11:24:04;;;;;;;;;;;23.20;92.50;;;;;;5053888;28;19913;-60
2023/09/11 11:26:30;;;;;;;;;;;23.20;92.50;;;;;;5054063;28;19916;-59
2023/09/11 11:28:56;;;;;;;;;;;23.20;92.50;;;;;;5053968;28;20283;-58
2023/09/11 11:31:22;;;;;;;;;;;23.20;92.50;;;;;;5053808;28;19908;-59
2023/09/11 11:33:49;;;;;;;;;;;23.20;92.40;;;;;;5053668;28;19908;-59
2023/09/11 11:36:16;;;;;;;;;;;23.20;92.40;;;;;;5053357;28;19909;-59
2023/09/11 11:38:44;;;;;;;;;;;23.20;92.40;;;;;;5053767;28;19916;-56
2023/09/11 11:41:11;;;;;;;;;;;23.20;92.40;;;;;;5053946;28;19952;-60
2023/09/11 11:43:37;;;;;;;;;;;23.20;92.40;;;;;;5053679;28;19920;-60
2023/09/11 11:46:06;;;;;;;;;;;23.20;92.40;;;;;;5053456;28;19913;-60
2023/09/11 11:48:34;;;;;;;;;;;23.20;92.40;;;;;;5053648;28;20284;-59
2023/09/11 11:51:00;;;;;;;;;;;23.20;92.40;;;;;;5053294;28;20368;-60
2023/09/11 11:53:25;;;;;;;;;;;23.20;92.40;;;;;;5053602;28;19909;-59
2023/09/11 11:55:51;;;;;;;;;;;23.20;92.40;;;;;;5053386;28;19909;-59
2023/09/11 11:58:17;;;;;;;;;;;23.20;92.40;;;;;;5053583;28;19964;-59
2023/09/11 12:01:00;;;;;;;;;;;23.20;92.40;;;;;;5053707;28;19921;-59
2023/09/11 12:03:26;;;;;;;;;;;23.20;92.40;;;;;;5053866;28;19912;-59
2023/09/11 12:05:52;;;;;;;;;;;23.20;92.40;;;;;;5053093;28;19980;-59
2023/09/11 12:08:17;;;;;;;;;;;23.20;92.40;;;;;;5053155;28;19916;-59
2023/09/11 12:10:48;;;;;;;;;;;23.20;92.40;;;;;;5053877;28;20051;-59
2023/09/11 12:13:14;;;;;;;;;;;23.20;92.40;;;;;;5053454;28;19960;-59
2023/09/11 12:15:40;;;;;;;;;;;23.20;92.40;;;;;;5053509;28;19916;-59
2023/09/11 12:18:05;;;;;;;;;;;23.20;92.40;;;;;;5053521;28;19908;-59
2023/09/11 12:20:31;;;;;;;;;;;23.20;92.40;;;;;;5050266;28;20001;-59
2023/09/11 12:23:00;;;;;;;;;;;23.20;92.40;;;;;;5060835;28;19936;-59
2023/09/11 12:25:25;;;;;;;;;;;23.20;92.40;;;;;;5071212;28;20006;-56
2023/09/11 12:27:51;;;;;;;;;;;23.20;92.40;;;;;;5067962;28;20050;-58
2023/09/11 12:30:16;;;;;;;;;;;23.20;92.40;;;;;;5058127;28;19958;-59
2023/09/11 12:32:44;;;;;;;;;;;23.20;92.40;;;;;;5049912;28;19956;-60
2023/09/11 12:35:09;;;;;;;;;;;23.20;92.40;;;;;;5047674;28;19917;-55
2023/09/11 12:37:36;;;;;;;;;;;23.20;92.40;;;;;;5046231;28;19919;-60
2023/09/11 12:40:08;;;;;;;;;;;23.20;92.30;;;;;;5045530;28;19917;-60
2023/09/11 12:42:34;;;;;;;;;;;23.20;92.20;;;;;;5052932;28;20383;-60
2023/09/11 12:45:00;;;;;;;;;;;23.20;92.40;;;;;;5052939;28;19968;-60
2023/09/11 12:47:25;;;;;;;;;;;23.20;92.20;;;;;;5053161;28;19921;-60
2023/09/11 12:49:51;;;;;;;;;;;23.20;92.20;;;;;;5056899;28;19912;-60
2023/09/11 12:52:21;;;;;;;;;;;23.20;92.20;;;;;;5056911;28;19909;-58
2023/09/11 12:54:46;;;;;;;;;;;23.20;92.20;;;;;;5056629;28;19963;-59
2023/09/11 12:57:13;;;;;;;;;;;23.20;92.20;;;;;;5056413;28;19913;-59
2023/09/11 12:59:39;;;;;;;;;;;23.20;92.20;;;;;;5056566;28;20367;-59
2023/09/11 13:02:06;;;;;;;;;;;23.20;92.20;;;;;;5056370;28;19913;-60
2023/09/11 13:04:33;;;;;;;;;;;23.20;92.20;;;;;;5056520;28;19920;-59
2023/09/11 13:06:59;;;;;;;;;;;23.20;92.20;;;;;;5056292;28;20279;-60
2023/09/11 13:09:26;;;;;;;;;;;23.20;92.20;;;;;;5056460;28;19912;-60
2023/09/11 13:11:51;;;;;;;;;;;23.20;92.20;;;;;;5056381;28;19952;-59
2023/09/11 13:14:16;;;;;;;;;;;23.20;92.20;;;;;;5056289;28;19956;-59
2023/09/11 13:16:43;;;;;;;;;;;23.20;92.20;;;;;;5056044;28;19909;-60
2023/09/11 13:19:09;;;;;;;;;;;23.20;92.20;;;;;;5056003;28;19924;-59
2023/09/11 13:21:34;;;;;;;;;;;23.20;92.20;;;;;;5064146;28;19921;-59
2023/09/11 13:24:00;;;;;;;;;;;23.20;92.20;;;;;;5062303;28;20011;-60
2023/09/11 13:26:25;;;;;;;;;;;23.20;92.20;;;;;;5068558;28;19920;-59
2023/09/11 13:28:50;;;;;;;;;;;23.20;92.20;;;;;;5065896;28;20003;-60
2023/09/11 13:31:16;;;;;;;;;;;23.20;92.20;;;;;;5068210;28;20437;-59
2023/09/11 13:33:42;;;;;;;;;;;23.20;92.20;;;;;;5072167;28;19921;-59
2023/09/11 13:36:08;;;;;;;;;;;23.20;92.20;;;;;;5070642;28;19958;-60
2023/09/11 13:38:34;;;;;;;;;;;23.20;92.20;;;;;;5063472;28;20318;-60
2023/09/11 13:40:59;;;;;;;;;;;23.30;92.30;;;;;;5055185;28;20011;-59
2023/09/11 13:43:25;;;;;;;;;;;23.20;92.30;;;;;;5055458;28;20431;-59
2023/09/11 13:45:50;;;;;;;;;;;23.30;92.20;;;;;;5057342;28;20042;-58
2023/09/11 13:48:16;;;;;;;;;;;23.20;92.20;;;;;;5059781;28;19925;-58
2023/09/11 13:50:41;;;;;;;;;;;23.30;92.20;;;;;;5073291;28;19919;-59
2023/09/11 13:53:06;;;;;;;;;;;23.20;92.20;;;;;;5077052;28;20260;-60
2023/09/11 13:55:32;;;;;;;;;;;23.20;92.20;;;;;;5074949;28;20007;-60
2023/09/11 13:57:57;;;;;;;;;;;23.20;92.20;;;;;;5070599;28;19913;-59
2023/09/11 14:00:23;;;;;;;;;;;23.20;92.20;;;;;;5072189;28;20379;-60
2023/09/11 14:02:48;;;;;;;;;;;23.20;92.20;;;;;;5084176;28;19916;-60
2023/09/11 14:05:14;;;;;;;;;;;23.20;92.20;;;;;;5088191;28;19923;-59
2023/09/11 14:07:39;;;;;;;;;;;23.20;92.20;;;;;;5072371;28;19993;-61
2023/09/11 14:10:05;;;;;;;;;;;23.20;92.20;;;;;;5079446;28;20031;-60